CEB951 VVTS-RPLL
Flight info
| Callsign | CEB951 |
|---|---|
| Flight time | 2h 12m |
| Altitude | 33000 |
| Route | ANTRI2F PTH N500 PANDI/N0471F370 M765 REKEL DCT LUBAN LUBAN3R |
| Aircraft | A339/H-SADE1E2E3GHIJ3J5M1P2RWXY/LB2D1 |
Departure
| Time | 2026-05-08 07:17 |
|---|---|
| Airport | Tan Son Nhat International Airport (VVTS) |
Arrival
| Time | 2026-05-08 09:30 |
|---|---|
| Airport | Ninoy Aquino International Airport (RPLL) |
| Time | Latitude | Longitude | Altitude | Speed | Heading |
|---|---|---|---|---|---|
| 2026-05-08 06:41 | 10.81601 | 106.66143 | 37 ft | 0 kts | 95° |
| 2026-05-08 06:44 | 10.81602 | 106.66133 | 37 ft | 2 kts | 95° |
| 2026-05-08 06:44 | 10.81604 | 106.66118 | 37 ft | 2 kts | 95° |
| 2026-05-08 06:44 | 10.81605 | 106.66103 | 37 ft | 1 kts | 95° |
| 2026-05-08 06:45 | 10.81606 | 106.66093 | 37 ft | 2 kts | 90° |
| 2026-05-08 06:45 | 10.81604 | 106.66078 | 37 ft | 2 kts | 70° |
| 2026-05-08 06:45 | 10.81599 | 106.66067 | 37 ft | 2 kts | 58° |
| 2026-05-08 06:45 | 10.81588 | 106.66054 | 37 ft | 2 kts | 41° |
| 2026-05-08 06:46 | 10.81576 | 106.66045 | 37 ft | 2 kts | 26° |
| 2026-05-08 06:46 | 10.81563 | 106.66039 | 37 ft | 2 kts | 11° |
| 2026-05-08 06:46 | 10.81557 | 106.66039 | 37 ft | 0 kts | 6° |
| 2026-05-08 06:46 | 10.81554 | 106.66039 | 37 ft | 0 kts | 5° |
| 2026-05-08 06:50 | 10.81561 | 106.66039 | 37 ft | 2 kts | 7° |
| 2026-05-08 06:50 | 10.81581 | 106.66042 | 37 ft | 3 kts | 8° |
| 2026-05-08 06:50 | 10.81605 | 106.66045 | 37 ft | 5 kts | 8° |
| 2026-05-08 06:51 | 10.81617 | 106.66047 | 37 ft | 0 kts | 7° |
| 2026-05-08 06:51 | 10.81627 | 106.66048 | 37 ft | 2 kts | 7° |
| 2026-05-08 06:51 | 10.81647 | 106.66051 | 37 ft | 4 kts | 8° |
| 2026-05-08 06:52 | 10.81665 | 106.66053 | 37 ft | 0 kts | 6° |
| 2026-05-08 06:52 | 10.81469 | 106.66137 | 38 ft | 0 kts | 6° |
| 2026-05-08 06:53 | 10.81541 | 106.66042 | 37 ft | 0 kts | 6° |
| 2026-05-08 06:55 | 10.81491 | 106.66033 | 37 ft | 0 kts | 6° |
| 2026-05-08 06:55 | 10.81494 | 106.66042 | 37 ft | 0 kts | 6° |
| 2026-05-08 06:56 | 10.81531 | 106.66042 | 37 ft | 0 kts | 6° |
| 2026-05-08 06:56 | 10.81395 | 106.66128 | 39 ft | 0 kts | 6° |
| 2026-05-08 06:56 | 10.81517 | 106.66041 | 37 ft | 0 kts | 95° |
| 2026-05-08 06:56 | 10.81395 | 106.66118 | 39 ft | 0 kts | 95° |
| 2026-05-08 06:57 | 10.81494 | 106.66035 | 37 ft | 0 kts | 7° |
| 2026-05-08 06:57 | 10.81556 | 106.66042 | 37 ft | 0 kts | 7° |
| 2026-05-08 06:58 | 10.81582 | 106.66045 | 37 ft | 8 kts | 8° |
| 2026-05-08 06:59 | 10.81651 | 106.66053 | 37 ft | 14 kts | 5° |
| 2026-05-08 06:59 | 10.81739 | 106.66061 | 37 ft | 17 kts | 5° |
| 2026-05-08 06:59 | 10.81873 | 106.66091 | 37 ft | 12 kts | 50° |
| 2026-05-08 06:59 | 10.81891 | 106.66166 | 37 ft | 8 kts | 65° |
| 2026-05-08 07:00 | 10.81919 | 106.66226 | 37 ft | 10 kts | 68° |
| 2026-05-08 07:00 | 10.81942 | 106.66284 | 37 ft | 10 kts | 69° |
| 2026-05-08 07:00 | 10.81963 | 106.66341 | 37 ft | 11 kts | 69° |
| 2026-05-08 07:00 | 10.81986 | 106.66402 | 37 ft | 12 kts | 69° |
| 2026-05-08 07:01 | 10.82027 | 106.66510 | 38 ft | 12 kts | 69° |
| 2026-05-08 07:01 | 10.82065 | 106.66608 | 38 ft | 12 kts | 69° |
| 2026-05-08 07:01 | 10.82097 | 106.66692 | 40 ft | 12 kts | 69° |
| 2026-05-08 07:01 | 10.82126 | 106.66772 | 40 ft | 12 kts | 70° |
| 2026-05-08 07:02 | 10.82145 | 106.66821 | 40 ft | 0 kts | 70° |
| 2026-05-08 07:02 | 10.81545 | 106.66035 | 37 ft | 0 kts | 70° |
| 2026-05-08 07:02 | 10.81570 | 106.66043 | 37 ft | 0 kts | 6° |
| 2026-05-08 07:08 | 10.81574 | 106.66043 | 37 ft | 1 kts | 6° |
| 2026-05-08 07:08 | 10.81585 | 106.66045 | 37 ft | 2 kts | 6° |
| 2026-05-08 07:09 | 10.81616 | 106.66048 | 37 ft | 4 kts | 6° |
| 2026-05-08 07:09 | 10.81670 | 106.66053 | 37 ft | 7 kts | 5° |
| 2026-05-08 07:09 | 10.81755 | 106.66061 | 37 ft | 8 kts | 5° |
| 2026-05-08 07:09 | 10.81818 | 106.66067 | 37 ft | 8 kts | 6° |
| 2026-05-08 07:10 | 10.81865 | 106.66093 | 37 ft | 8 kts | 53° |
| 2026-05-08 07:10 | 10.81890 | 106.66144 | 37 ft | 8 kts | 69° |
| 2026-05-08 07:10 | 10.81909 | 106.66194 | 37 ft | 7 kts | 69° |
| 2026-05-08 07:10 | 10.81926 | 106.66239 | 37 ft | 8 kts | 69° |
| 2026-05-08 07:11 | 10.81939 | 106.66274 | 37 ft | 9 kts | 69° |
| 2026-05-08 07:11 | 10.81962 | 106.66336 | 37 ft | 10 kts | 69° |
| 2026-05-08 07:11 | 10.81983 | 106.66396 | 37 ft | 11 kts | 70° |
| 2026-05-08 07:11 | 10.82019 | 106.66498 | 38 ft | 11 kts | 70° |
| 2026-05-08 07:12 | 10.82052 | 106.66577 | 38 ft | 11 kts | 68° |
| 2026-05-08 07:12 | 10.82070 | 106.66622 | 39 ft | 11 kts | 68° |
| 2026-05-08 07:12 | 10.82082 | 106.66653 | 39 ft | 11 kts | 68° |
| 2026-05-08 07:12 | 10.82100 | 106.66699 | 40 ft | 11 kts | 69° |
| 2026-05-08 07:13 | 10.82124 | 106.66765 | 40 ft | 11 kts | 69° |
| 2026-05-08 07:13 | 10.82172 | 106.66894 | 42 ft | 11 kts | 69° |
| 2026-05-08 07:13 | 10.82202 | 106.66973 | 43 ft | 11 kts | 70° |
| 2026-05-08 07:13 | 10.82238 | 106.67012 | 42 ft | 8 kts | 5° |
| 2026-05-08 07:14 | 10.82269 | 106.67004 | 42 ft | 0 kts | 338° |
| 2026-05-08 07:14 | 10.82270 | 106.67004 | 42 ft | 0 kts | 338° |
| 2026-05-08 07:14 | 10.82275 | 106.67001 | 42 ft | 2 kts | 338° |
| 2026-05-08 07:15 | 10.82287 | 106.66997 | 41 ft | 4 kts | 338° |
| 2026-05-08 07:15 | 10.82315 | 106.66981 | 41 ft | 6 kts | 323° |
| 2026-05-08 07:15 | 10.82336 | 106.66936 | 40 ft | 8 kts | 279° |
| 2026-05-08 07:15 | 10.82340 | 106.66882 | 40 ft | 9 kts | 261° |
| 2026-05-08 07:16 | 10.82333 | 106.66857 | 40 ft | 0 kts | 249° |
| 2026-05-08 07:16 | 10.82329 | 106.66846 | 40 ft | 12 kts | 249° |
| 2026-05-08 07:16 | 10.82263 | 106.66665 | 40 ft | 62 kts | 249° |
| 2026-05-08 07:16 | 10.82127 | 106.66303 | 39 ft | 103 kts | 250° |
| 2026-05-08 07:17 | 10.81809 | 106.65465 | 39 ft | 154 kts | 249° |
| 2026-05-08 07:17 | 10.81403 | 106.64378 | 334 ft | 171 kts | 250° |
| 2026-05-08 07:17 | 10.80987 | 106.63274 | 915 ft | 172 kts | 250° |
| 2026-05-08 07:17 | 10.80569 | 106.62163 | 1527 ft | 172 kts | 250° |
| 2026-05-08 07:18 | 10.80255 | 106.61332 | 1901 ft | 172 kts | 250° |
| 2026-05-08 07:18 | 10.80005 | 106.60667 | 2041 ft | 179 kts | 250° |
| 2026-05-08 07:18 | 10.79707 | 106.59680 | 2239 ft | 189 kts | 259° |
| 2026-05-08 07:18 | 10.79591 | 106.58887 | 2388 ft | 196 kts | 267° |
| 2026-05-08 07:19 | 10.79629 | 106.57711 | 2596 ft | 207 kts | 280° |
| 2026-05-08 07:19 | 10.80033 | 106.56273 | 2877 ft | 222 kts | 296° |
| 2026-05-08 07:19 | 10.80604 | 106.55276 | 3092 ft | 233 kts | 308° |
| 2026-05-08 07:19 | 10.82017 | 106.53941 | 3648 ft | 241 kts | 329° |
| 2026-05-08 07:20 | 10.83563 | 106.53264 | 4276 ft | 242 kts | 346° |
| 2026-05-08 07:20 | 10.85177 | 106.53101 | 4865 ft | 244 kts | 4° |
| 2026-05-08 07:20 | 10.86594 | 106.53371 | 5373 ft | 247 kts | 18° |
| 2026-05-08 07:20 | 10.87678 | 106.53876 | 5785 ft | 249 kts | 31° |
| 2026-05-08 07:21 | 10.88799 | 106.54781 | 6272 ft | 252 kts | 45° |
| 2026-05-08 07:21 | 10.89792 | 106.56168 | 6840 ft | 256 kts | 62° |
| 2026-05-08 07:21 | 10.90310 | 106.57690 | 7362 ft | 260 kts | 79° |
| 2026-05-08 07:21 | 10.90401 | 106.58943 | 7764 ft | 263 kts | 92° |
| 2026-05-08 07:22 | 10.90296 | 106.60191 | 8093 ft | 269 kts | 96° |
| 2026-05-08 07:22 | 10.90141 | 106.61351 | 8277 ft | 278 kts | 98° |
| 2026-05-08 07:22 | 10.89909 | 106.62917 | 8510 ft | 291 kts | 98° |
| 2026-05-08 07:22 | 10.89690 | 106.64423 | 8804 ft | 299 kts | 97° |
| 2026-05-08 07:23 | 10.89476 | 106.65958 | 9227 ft | 303 kts | 97° |
| 2026-05-08 07:23 | 10.89140 | 106.68513 | 9995 ft | 306 kts | 97° |
| 2026-05-08 07:23 | 10.88862 | 106.70699 | 10501 ft | 314 kts | 96° |
| 2026-05-08 07:23 | 10.88674 | 106.72809 | 10763 ft | 328 kts | 92° |
| 2026-05-08 07:24 | 10.88633 | 106.75188 | 11042 ft | 344 kts | 89° |
| 2026-05-08 07:24 | 10.88696 | 106.77630 | 11312 ft | 358 kts | 88° |
| 2026-05-08 07:24 | 10.88775 | 106.80039 | 11692 ft | 368 kts | 88° |
| 2026-05-08 07:24 | 10.88862 | 106.82569 | 12277 ft | 372 kts | 88° |
| 2026-05-08 07:25 | 10.88952 | 106.85098 | 12873 ft | 375 kts | 88° |
| 2026-05-08 07:25 | 10.89018 | 106.86955 | 13296 ft | 378 kts | 88° |
| 2026-05-08 07:25 | 10.89173 | 106.91423 | 14296 ft | 384 kts | 88° |
| 2026-05-08 07:26 | 10.89266 | 106.94149 | 14903 ft | 388 kts | 88° |
| 2026-05-08 07:26 | 10.89358 | 106.96888 | 15508 ft | 392 kts | 89° |
| 2026-05-08 07:26 | 10.89449 | 106.99591 | 16149 ft | 394 kts | 89° |
| 2026-05-08 07:26 | 10.89540 | 107.02307 | 16959 ft | 391 kts | 89° |
| 2026-05-08 07:27 | 10.89623 | 107.04814 | 17593 ft | 392 kts | 90° |
| 2026-05-08 07:27 | 10.89711 | 107.07549 | 18214 ft | 395 kts | 90° |
| 2026-05-08 07:27 | 10.89799 | 107.10261 | 18821 ft | 398 kts | 90° |
| 2026-05-08 07:27 | 10.89886 | 107.12972 | 19427 ft | 400 kts | 90° |
| 2026-05-08 07:28 | 10.89973 | 107.15675 | 20023 ft | 403 kts | 90° |
| 2026-05-08 07:28 | 10.90098 | 107.19524 | 20651 ft | 409 kts | 90° |
| 2026-05-08 07:28 | 10.90264 | 107.24760 | 21055 ft | 421 kts | 90° |
| 2026-05-08 07:28 | 10.90358 | 107.27668 | 21268 ft | 433 kts | 90° |
| 2026-05-08 07:29 | 10.90442 | 107.30286 | 21453 ft | 443 kts | 90° |
| 2026-05-08 07:29 | 10.90558 | 107.33847 | 21767 ft | 454 kts | 90° |
| 2026-05-08 07:29 | 10.90664 | 107.37067 | 22259 ft | 458 kts | 90° |
| 2026-05-08 07:29 | 10.90771 | 107.40319 | 22817 ft | 460 kts | 90° |
| 2026-05-08 07:30 | 10.90876 | 107.43559 | 23353 ft | 462 kts | 90° |
| 2026-05-08 07:30 | 10.90980 | 107.46816 | 23869 ft | 464 kts | 90° |
| 2026-05-08 07:30 | 10.91083 | 107.50073 | 24373 ft | 466 kts | 90° |
| 2026-05-08 07:30 | 10.91187 | 107.53381 | 24867 ft | 468 kts | 90° |
| 2026-05-08 07:31 | 10.91291 | 107.56692 | 25342 ft | 471 kts | 90° |
| 2026-05-08 07:31 | 10.91395 | 107.60023 | 25806 ft | 473 kts | 90° |
| 2026-05-08 07:31 | 10.91497 | 107.63333 | 26248 ft | 475 kts | 90° |
| 2026-05-08 07:31 | 10.91596 | 107.66509 | 26660 ft | 477 kts | 90° |
| 2026-05-08 07:32 | 10.91696 | 107.69778 | 27073 ft | 478 kts | 90° |
| 2026-05-08 07:32 | 10.91801 | 107.73181 | 27488 ft | 480 kts | 90° |
| 2026-05-08 07:32 | 10.91904 | 107.76559 | 27882 ft | 482 kts | 90° |
| 2026-05-08 07:32 | 10.92008 | 107.79985 | 28275 ft | 484 kts | 90° |
| 2026-05-08 07:33 | 10.92112 | 107.83411 | 28651 ft | 485 kts | 90° |
| 2026-05-08 07:33 | 10.92215 | 107.86854 | 29041 ft | 486 kts | 90° |
| 2026-05-08 07:33 | 10.92316 | 107.90247 | 29555 ft | 484 kts | 90° |
| 2026-05-08 07:33 | 10.92419 | 107.93692 | 30114 ft | 480 kts | 90° |
| 2026-05-08 07:34 | 10.92517 | 107.97047 | 30634 ft | 478 kts | 90° |
| 2026-05-08 07:34 | 10.92617 | 108.00439 | 31138 ft | 475 kts | 90° |
| 2026-05-08 07:34 | 10.92715 | 108.03783 | 31553 ft | 474 kts | 90° |
| 2026-05-08 07:34 | 10.92887 | 108.07111 | 31894 ft | 476 kts | 87° |
| 2026-05-08 07:35 | 10.93221 | 108.10477 | 32218 ft | 477 kts | 85° |
| 2026-05-08 07:35 | 10.93628 | 108.13834 | 32545 ft | 478 kts | 84° |
| 2026-05-08 07:35 | 10.94044 | 108.17162 | 32807 ft | 478 kts | 84° |
| 2026-05-08 07:36 | 10.94887 | 108.23871 | 32854 ft | 478 kts | 84° |
| 2026-05-08 07:36 | 10.95725 | 108.30586 | 32873 ft | 478 kts | 84° |
| 2026-05-08 07:37 | 10.96554 | 108.37259 | 32883 ft | 478 kts | 84° |
| 2026-05-08 07:37 | 10.97381 | 108.43933 | 32887 ft | 477 kts | 85° |
| 2026-05-08 07:38 | 10.98206 | 108.50613 | 32889 ft | 477 kts | 85° |
| 2026-05-08 07:38 | 10.99033 | 108.57315 | 32889 ft | 477 kts | 85° |
| 2026-05-08 07:39 | 10.99855 | 108.63995 | 32889 ft | 477 kts | 85° |
| 2026-05-08 07:39 | 11.00676 | 108.70686 | 32890 ft | 476 kts | 85° |
| 2026-05-08 07:40 | 11.01493 | 108.77354 | 32889 ft | 476 kts | 85° |
| 2026-05-08 07:40 | 11.02308 | 108.84006 | 32889 ft | 476 kts | 85° |
| 2026-05-08 07:41 | 11.03125 | 108.90675 | 32889 ft | 476 kts | 85° |
| 2026-05-08 07:41 | 11.03931 | 108.97272 | 32889 ft | 475 kts | 85° |
| 2026-05-08 07:42 | 11.04695 | 109.03569 | 32890 ft | 474 kts | 85° |
| 2026-05-08 07:42 | 11.05491 | 109.10134 | 32890 ft | 472 kts | 84° |
| 2026-05-08 07:43 | 11.06214 | 109.16103 | 32890 ft | 470 kts | 84° |
| 2026-05-08 07:43 | 11.06993 | 109.22546 | 32889 ft | 469 kts | 84° |
| 2026-05-08 07:44 | 11.07764 | 109.28918 | 32889 ft | 469 kts | 84° |
| 2026-05-08 07:44 | 11.08563 | 109.35545 | 32889 ft | 469 kts | 84° |
| 2026-05-08 07:45 | 11.09316 | 109.41808 | 32889 ft | 469 kts | 84° |
| 2026-05-08 07:45 | 11.10072 | 109.48117 | 32889 ft | 469 kts | 84° |
| 2026-05-08 07:46 | 11.10840 | 109.54523 | 32889 ft | 469 kts | 84° |
| 2026-05-08 07:46 | 11.11679 | 109.61103 | 32889 ft | 469 kts | 84° |
| 2026-05-08 07:47 | 11.12534 | 109.67677 | 32891 ft | 469 kts | 84° |
| 2026-05-08 07:47 | 11.13381 | 109.74246 | 32890 ft | 469 kts | 84° |
| 2026-05-08 07:48 | 11.14226 | 109.80828 | 32889 ft | 469 kts | 84° |
| 2026-05-08 07:48 | 11.15047 | 109.87237 | 32889 ft | 469 kts | 84° |
| 2026-05-08 07:49 | 11.15877 | 109.93731 | 32889 ft | 469 kts | 84° |
| 2026-05-08 07:49 | 11.16696 | 110.00119 | 32889 ft | 469 kts | 84° |
| 2026-05-08 07:50 | 11.17522 | 110.06587 | 32889 ft | 469 kts | 84° |
| 2026-05-08 07:50 | 11.18278 | 110.12527 | 32889 ft | 469 kts | 84° |
| 2026-05-08 07:51 | 11.19151 | 110.19411 | 32889 ft | 469 kts | 84° |
| 2026-05-08 07:51 | 11.19965 | 110.25838 | 32889 ft | 469 kts | 84° |
| 2026-05-08 07:52 | 11.20784 | 110.32327 | 32889 ft | 469 kts | 84° |
| 2026-05-08 07:52 | 11.21611 | 110.38885 | 32889 ft | 469 kts | 84° |
| 2026-05-08 07:53 | 11.22434 | 110.45430 | 32889 ft | 469 kts | 84° |
| 2026-05-08 07:53 | 11.23253 | 110.51945 | 32889 ft | 469 kts | 84° |
| 2026-05-08 07:54 | 11.24064 | 110.58416 | 32889 ft | 469 kts | 84° |
| 2026-05-08 07:54 | 11.24892 | 110.65028 | 32889 ft | 469 kts | 84° |
| 2026-05-08 07:55 | 11.25708 | 110.71566 | 32890 ft | 469 kts | 84° |
| 2026-05-08 07:55 | 11.26503 | 110.77944 | 32889 ft | 469 kts | 84° |
| 2026-05-08 07:56 | 11.27322 | 110.84525 | 32889 ft | 469 kts | 84° |
| 2026-05-08 07:56 | 11.28134 | 110.91071 | 32889 ft | 469 kts | 84° |
| 2026-05-08 07:57 | 11.28935 | 110.97554 | 32889 ft | 470 kts | 84° |
| 2026-05-08 07:57 | 11.29755 | 111.04202 | 32889 ft | 472 kts | 84° |
| 2026-05-08 07:58 | 11.30568 | 111.10796 | 32889 ft | 473 kts | 84° |
| 2026-05-08 07:58 | 11.31344 | 111.17441 | 32889 ft | 474 kts | 84° |
| 2026-05-08 07:59 | 11.32070 | 111.23786 | 32889 ft | 474 kts | 84° |
| 2026-05-08 07:59 | 11.32823 | 111.30394 | 32889 ft | 474 kts | 84° |
| 2026-05-08 08:00 | 11.33580 | 111.37033 | 32889 ft | 474 kts | 84° |
| 2026-05-08 08:00 | 11.34331 | 111.43637 | 32889 ft | 474 kts | 84° |
| 2026-05-08 08:01 | 11.35083 | 111.50257 | 32889 ft | 474 kts | 84° |
| 2026-05-08 08:01 | 11.35833 | 111.56877 | 32889 ft | 474 kts | 84° |
| 2026-05-08 08:02 | 11.36581 | 111.63497 | 32889 ft | 474 kts | 84° |
| 2026-05-08 08:02 | 11.37319 | 111.70033 | 32890 ft | 474 kts | 84° |
| 2026-05-08 08:03 | 11.38055 | 111.76575 | 32889 ft | 474 kts | 84° |
| 2026-05-08 08:03 | 11.38801 | 111.83207 | 32889 ft | 474 kts | 84° |
| 2026-05-08 08:04 | 11.39523 | 111.89651 | 32889 ft | 474 kts | 84° |
| 2026-05-08 08:04 | 11.39893 | 111.92953 | 32889 ft | 474 kts | 84° |
| 2026-05-08 08:05 | 11.40925 | 112.02190 | 32889 ft | 474 kts | 84° |
| 2026-05-08 08:05 | 11.41654 | 112.08733 | 32889 ft | 474 kts | 84° |
| 2026-05-08 08:06 | 11.42395 | 112.15388 | 32889 ft | 474 kts | 84° |
| 2026-05-08 08:06 | 11.43124 | 112.21960 | 32889 ft | 474 kts | 84° |
| 2026-05-08 08:07 | 11.43855 | 112.28562 | 32889 ft | 474 kts | 84° |
| 2026-05-08 08:07 | 11.44585 | 112.35174 | 32889 ft | 474 kts | 84° |
| 2026-05-08 08:08 | 11.45310 | 112.41755 | 32889 ft | 474 kts | 84° |
| 2026-05-08 08:08 | 11.46026 | 112.48278 | 32889 ft | 474 kts | 84° |
| 2026-05-08 08:09 | 11.46754 | 112.54932 | 32889 ft | 474 kts | 84° |
| 2026-05-08 08:09 | 11.47487 | 112.61507 | 32889 ft | 474 kts | 84° |
| 2026-05-08 08:10 | 11.48188 | 112.67413 | 32891 ft | 474 kts | 84° |
| 2026-05-08 08:10 | 11.48997 | 112.74226 | 32890 ft | 474 kts | 84° |
| 2026-05-08 08:11 | 11.49772 | 112.80793 | 32889 ft | 474 kts | 84° |
| 2026-05-08 08:11 | 11.50496 | 112.86964 | 32889 ft | 475 kts | 84° |
| 2026-05-08 08:12 | 11.51265 | 112.93529 | 32888 ft | 478 kts | 84° |
| 2026-05-08 08:12 | 11.51963 | 112.99508 | 32888 ft | 480 kts | 84° |
| 2026-05-08 08:13 | 11.52740 | 113.06171 | 32889 ft | 482 kts | 84° |
| 2026-05-08 08:13 | 11.53522 | 113.12878 | 32889 ft | 483 kts | 84° |
| 2026-05-08 08:14 | 11.54310 | 113.19660 | 32889 ft | 483 kts | 84° |
| 2026-05-08 08:14 | 11.55100 | 113.26479 | 32889 ft | 483 kts | 84° |
| 2026-05-08 08:15 | 11.55883 | 113.33243 | 32889 ft | 483 kts | 84° |
| 2026-05-08 08:15 | 11.56639 | 113.39799 | 32889 ft | 483 kts | 84° |
| 2026-05-08 08:16 | 11.57421 | 113.46582 | 32889 ft | 483 kts | 84° |
| 2026-05-08 08:16 | 11.58203 | 113.53389 | 32889 ft | 483 kts | 84° |
| 2026-05-08 08:17 | 11.58983 | 113.60197 | 32889 ft | 483 kts | 84° |
| 2026-05-08 08:17 | 11.59760 | 113.66988 | 32890 ft | 483 kts | 84° |
| 2026-05-08 08:18 | 11.60532 | 113.73753 | 32890 ft | 483 kts | 84° |
| 2026-05-08 08:18 | 11.61279 | 113.80323 | 32889 ft | 483 kts | 84° |
| 2026-05-08 08:19 | 11.61985 | 113.86548 | 32889 ft | 483 kts | 84° |
| 2026-05-08 08:19 | 11.62769 | 113.92862 | 32889 ft | 483 kts | 82° |
| 2026-05-08 08:20 | 11.63979 | 113.98934 | 32889 ft | 484 kts | 77° |
| 2026-05-08 08:20 | 11.65667 | 114.04702 | 32889 ft | 484 kts | 71° |
| 2026-05-08 08:21 | 11.68137 | 114.10958 | 32888 ft | 485 kts | 67° |
| 2026-05-08 08:21 | 11.70761 | 114.17068 | 32883 ft | 485 kts | 67° |
| 2026-05-08 08:22 | 11.73273 | 114.22927 | 32877 ft | 485 kts | 67° |
| 2026-05-08 08:22 | 11.75967 | 114.29238 | 32870 ft | 485 kts | 67° |
| 2026-05-08 08:23 | 11.78223 | 114.34537 | 32866 ft | 485 kts | 67° |
| 2026-05-08 08:23 | 11.80878 | 114.40778 | 32864 ft | 485 kts | 67° |
| 2026-05-08 08:24 | 11.83326 | 114.46542 | 32863 ft | 485 kts | 67° |
| 2026-05-08 08:24 | 11.85829 | 114.52435 | 32863 ft | 485 kts | 67° |
| 2026-05-08 08:25 | 11.88457 | 114.58627 | 32863 ft | 485 kts | 67° |
| 2026-05-08 08:25 | 11.90863 | 114.64302 | 32863 ft | 485 kts | 67° |
| 2026-05-08 08:26 | 11.93263 | 114.69964 | 32863 ft | 485 kts | 68° |
| 2026-05-08 08:26 | 11.95759 | 114.75856 | 32863 ft | 485 kts | 68° |
| 2026-05-08 08:27 | 11.98285 | 114.81825 | 32863 ft | 485 kts | 68° |
| 2026-05-08 08:27 | 12.00472 | 114.86995 | 32863 ft | 485 kts | 68° |
| 2026-05-08 08:28 | 12.02974 | 114.92914 | 32863 ft | 485 kts | 68° |
| 2026-05-08 08:28 | 12.05641 | 114.99229 | 32863 ft | 484 kts | 68° |
| 2026-05-08 08:29 | 12.07782 | 115.04302 | 32863 ft | 484 kts | 67° |
| 2026-05-08 08:29 | 12.10055 | 115.09694 | 32863 ft | 484 kts | 67° |
| 2026-05-08 08:30 | 12.12371 | 115.15188 | 32863 ft | 483 kts | 67° |
| 2026-05-08 08:30 | 12.15933 | 115.23642 | 32863 ft | 483 kts | 67° |
| 2026-05-08 08:31 | 12.18302 | 115.29267 | 32863 ft | 483 kts | 67° |
| 2026-05-08 08:31 | 12.20698 | 115.34963 | 32863 ft | 483 kts | 67° |
| 2026-05-08 08:32 | 12.23394 | 115.41376 | 32863 ft | 483 kts | 67° |
| 2026-05-08 08:32 | 12.25965 | 115.47497 | 32863 ft | 483 kts | 67° |
| 2026-05-08 08:33 | 12.28459 | 115.53439 | 32863 ft | 483 kts | 67° |
| 2026-05-08 08:33 | 12.30921 | 115.59306 | 32863 ft | 483 kts | 67° |
| 2026-05-08 08:34 | 12.33237 | 115.64834 | 32863 ft | 483 kts | 67° |
| 2026-05-08 08:34 | 12.35647 | 115.70587 | 32863 ft | 483 kts | 67° |
| 2026-05-08 08:35 | 12.38117 | 115.76482 | 32863 ft | 483 kts | 67° |
| 2026-05-08 08:35 | 12.40624 | 115.82472 | 32863 ft | 483 kts | 67° |
| 2026-05-08 08:36 | 12.43258 | 115.88773 | 32863 ft | 483 kts | 67° |
| 2026-05-08 08:36 | 12.45712 | 115.94645 | 32863 ft | 483 kts | 67° |
| 2026-05-08 08:37 | 12.48189 | 116.00595 | 32863 ft | 483 kts | 67° |
| 2026-05-08 08:37 | 12.50930 | 116.07186 | 32863 ft | 483 kts | 67° |
| 2026-05-08 08:38 | 12.53556 | 116.13489 | 32863 ft | 483 kts | 67° |
| 2026-05-08 08:38 | 12.56017 | 116.19398 | 32863 ft | 483 kts | 67° |
| 2026-05-08 08:39 | 12.57593 | 116.23185 | 32863 ft | 483 kts | 67° |
| 2026-05-08 08:39 | 12.61050 | 116.31488 | 32863 ft | 483 kts | 67° |
| 2026-05-08 08:40 | 12.63628 | 116.37691 | 32863 ft | 483 kts | 67° |
| 2026-05-08 08:40 | 12.66191 | 116.43864 | 32863 ft | 483 kts | 67° |
| 2026-05-08 08:41 | 12.68729 | 116.49983 | 32863 ft | 483 kts | 67° |
| 2026-05-08 08:41 | 12.71372 | 116.56360 | 32863 ft | 483 kts | 67° |
| 2026-05-08 08:42 | 12.73943 | 116.62570 | 32863 ft | 483 kts | 67° |
| 2026-05-08 08:42 | 12.76523 | 116.68809 | 32863 ft | 483 kts | 67° |
| 2026-05-08 08:43 | 12.79085 | 116.75004 | 32863 ft | 483 kts | 67° |
| 2026-05-08 08:43 | 12.81640 | 116.81177 | 32863 ft | 483 kts | 67° |
| 2026-05-08 08:44 | 12.84265 | 116.87528 | 32863 ft | 483 kts | 67° |
| 2026-05-08 08:44 | 12.86825 | 116.93736 | 32863 ft | 483 kts | 67° |
| 2026-05-08 08:45 | 12.89390 | 116.99963 | 32862 ft | 483 kts | 67° |
| 2026-05-08 08:45 | 12.91881 | 117.06010 | 32862 ft | 485 kts | 66° |
| 2026-05-08 08:46 | 12.94495 | 117.12360 | 32861 ft | 486 kts | 66° |
| 2026-05-08 08:46 | 12.97069 | 117.18617 | 32862 ft | 488 kts | 66° |
| 2026-05-08 08:47 | 12.99689 | 117.24992 | 32857 ft | 489 kts | 66° |
| 2026-05-08 08:47 | 13.02284 | 117.31311 | 32851 ft | 490 kts | 66° |
| 2026-05-08 08:48 | 13.04907 | 117.37704 | 32844 ft | 491 kts | 66° |
| 2026-05-08 08:48 | 13.07536 | 117.44116 | 32839 ft | 492 kts | 66° |
| 2026-05-08 08:49 | 13.10139 | 117.50469 | 32837 ft | 494 kts | 66° |
| 2026-05-08 08:49 | 13.12764 | 117.56882 | 32837 ft | 495 kts | 66° |
| 2026-05-08 08:50 | 13.14927 | 117.63505 | 32837 ft | 497 kts | 72° |
| 2026-05-08 08:50 | 13.16764 | 117.70057 | 32836 ft | 497 kts | 73° |
| 2026-05-08 08:51 | 13.18592 | 117.76509 | 32836 ft | 497 kts | 72° |
| 2026-05-08 08:51 | 13.20551 | 117.83312 | 32836 ft | 497 kts | 72° |
| 2026-05-08 08:52 | 13.22503 | 117.90049 | 32836 ft | 497 kts | 72° |
| 2026-05-08 08:52 | 13.24473 | 117.96843 | 32836 ft | 497 kts | 72° |
| 2026-05-08 08:53 | 13.26390 | 118.03460 | 32836 ft | 497 kts | 72° |
| 2026-05-08 08:53 | 13.28288 | 118.10014 | 32836 ft | 497 kts | 72° |
| 2026-05-08 08:54 | 13.30237 | 118.16775 | 32836 ft | 497 kts | 72° |
| 2026-05-08 08:54 | 13.32161 | 118.23444 | 32617 ft | 497 kts | 72° |
| 2026-05-08 08:55 | 13.33126 | 118.26788 | 32371 ft | 495 kts | 72° |
| 2026-05-08 08:55 | 13.34089 | 118.30122 | 32124 ft | 493 kts | 72° |
| 2026-05-08 08:55 | 13.35052 | 118.33463 | 31876 ft | 491 kts | 72° |
| 2026-05-08 08:55 | 13.36002 | 118.36755 | 31631 ft | 489 kts | 72° |
| 2026-05-08 08:56 | 13.36951 | 118.40051 | 31386 ft | 489 kts | 72° |
| 2026-05-08 08:56 | 13.37921 | 118.43418 | 31135 ft | 490 kts | 72° |
| 2026-05-08 08:56 | 13.38886 | 118.46771 | 30886 ft | 490 kts | 72° |
| 2026-05-08 08:56 | 13.39843 | 118.50097 | 30640 ft | 491 kts | 72° |
| 2026-05-08 08:57 | 13.40801 | 118.53428 | 30393 ft | 492 kts | 72° |
| 2026-05-08 08:57 | 13.41762 | 118.56774 | 30146 ft | 493 kts | 72° |
| 2026-05-08 08:57 | 13.42738 | 118.60172 | 29895 ft | 493 kts | 72° |
| 2026-05-08 08:57 | 13.43704 | 118.63534 | 29647 ft | 494 kts | 72° |
| 2026-05-08 08:58 | 13.44525 | 118.66396 | 29435 ft | 495 kts | 72° |
| 2026-05-08 08:58 | 13.45367 | 118.69331 | 29219 ft | 495 kts | 72° |
| 2026-05-08 08:58 | 13.46518 | 118.73348 | 28924 ft | 496 kts | 72° |
| 2026-05-08 08:58 | 13.47453 | 118.76611 | 28685 ft | 497 kts | 72° |
| 2026-05-08 08:59 | 13.48421 | 118.79995 | 28435 ft | 495 kts | 73° |
| 2026-05-08 08:59 | 13.49382 | 118.83353 | 28188 ft | 492 kts | 72° |
| 2026-05-08 08:59 | 13.50298 | 118.86562 | 27950 ft | 489 kts | 72° |
| 2026-05-08 08:59 | 13.51270 | 118.89965 | 27697 ft | 486 kts | 72° |
| 2026-05-08 09:00 | 13.52213 | 118.93265 | 27449 ft | 482 kts | 72° |
| 2026-05-08 09:00 | 13.53135 | 118.96493 | 27205 ft | 479 kts | 72° |
| 2026-05-08 09:00 | 13.54073 | 118.99777 | 26955 ft | 476 kts | 73° |
| 2026-05-08 09:00 | 13.54985 | 119.02972 | 26710 ft | 473 kts | 73° |
| 2026-05-08 09:01 | 13.55907 | 119.06204 | 26461 ft | 471 kts | 73° |
| 2026-05-08 09:01 | 13.56823 | 119.09424 | 26211 ft | 469 kts | 73° |
| 2026-05-08 09:01 | 13.57725 | 119.12595 | 25964 ft | 467 kts | 73° |
| 2026-05-08 09:01 | 13.58630 | 119.15777 | 25716 ft | 466 kts | 73° |
| 2026-05-08 09:02 | 13.59530 | 119.18942 | 25468 ft | 464 kts | 73° |
| 2026-05-08 09:02 | 13.60419 | 119.22057 | 25223 ft | 463 kts | 72° |
| 2026-05-08 09:02 | 13.61313 | 119.25189 | 24976 ft | 461 kts | 72° |
| 2026-05-08 09:02 | 13.62200 | 119.28296 | 24730 ft | 460 kts | 72° |
| 2026-05-08 09:03 | 13.63098 | 119.31448 | 24480 ft | 459 kts | 72° |
| 2026-05-08 09:03 | 13.63975 | 119.34536 | 24235 ft | 457 kts | 72° |
| 2026-05-08 09:03 | 13.64852 | 119.37627 | 23988 ft | 456 kts | 72° |
| 2026-05-08 09:03 | 13.65731 | 119.40727 | 23740 ft | 454 kts | 72° |
| 2026-05-08 09:04 | 13.66534 | 119.43562 | 23513 ft | 453 kts | 72° |
| 2026-05-08 09:04 | 13.67391 | 119.46588 | 23269 ft | 452 kts | 72° |
| 2026-05-08 09:04 | 13.68044 | 119.48897 | 23083 ft | 451 kts | 72° |
| 2026-05-08 09:04 | 13.69148 | 119.52799 | 22767 ft | 449 kts | 72° |
| 2026-05-08 09:05 | 13.70013 | 119.55862 | 22518 ft | 448 kts | 72° |
| 2026-05-08 09:05 | 13.70882 | 119.58939 | 22268 ft | 446 kts | 72° |
| 2026-05-08 09:05 | 13.71716 | 119.61893 | 22027 ft | 445 kts | 72° |
| 2026-05-08 09:05 | 13.72565 | 119.64900 | 21780 ft | 444 kts | 72° |
| 2026-05-08 09:06 | 13.73338 | 119.67643 | 21555 ft | 443 kts | 72° |
| 2026-05-08 09:06 | 13.74085 | 119.70299 | 21319 ft | 440 kts | 72° |
| 2026-05-08 09:06 | 13.74733 | 119.72604 | 20974 ft | 437 kts | 72° |
| 2026-05-08 09:06 | 13.75735 | 119.76176 | 20259 ft | 435 kts | 72° |
| 2026-05-08 09:07 | 13.76570 | 119.79146 | 19680 ft | 432 kts | 72° |
| 2026-05-08 09:07 | 13.77396 | 119.82080 | 19128 ft | 430 kts | 72° |
| 2026-05-08 09:07 | 13.78224 | 119.85020 | 18575 ft | 427 kts | 72° |
| 2026-05-08 09:07 | 13.79042 | 119.87929 | 18034 ft | 424 kts | 72° |
| 2026-05-08 09:08 | 13.79850 | 119.90801 | 17761 ft | 414 kts | 72° |
| 2026-05-08 09:08 | 13.80643 | 119.93628 | 17568 ft | 403 kts | 72° |
| 2026-05-08 09:08 | 13.81406 | 119.96351 | 17382 ft | 393 kts | 72° |
| 2026-05-08 09:08 | 13.82151 | 119.99010 | 17202 ft | 383 kts | 72° |
| 2026-05-08 09:09 | 13.82875 | 120.01596 | 17031 ft | 373 kts | 72° |
| 2026-05-08 09:09 | 13.83591 | 120.04149 | 16860 ft | 364 kts | 72° |
| 2026-05-08 09:09 | 13.84231 | 120.06437 | 16710 ft | 356 kts | 72° |
| 2026-05-08 09:09 | 13.84952 | 120.08781 | 16547 ft | 346 kts | 64° |
| 2026-05-08 09:10 | 13.86052 | 120.10532 | 16399 ft | 335 kts | 44° |
| 2026-05-08 09:10 | 13.87517 | 120.11719 | 16271 ft | 325 kts | 26° |
| 2026-05-08 09:10 | 13.89053 | 120.12480 | 16128 ft | 319 kts | 22° |
| 2026-05-08 09:10 | 13.90811 | 120.13255 | 15858 ft | 317 kts | 21° |
| 2026-05-08 09:11 | 13.92791 | 120.14110 | 15519 ft | 317 kts | 21° |
| 2026-05-08 09:11 | 13.94342 | 120.14784 | 15263 ft | 316 kts | 21° |
| 2026-05-08 09:11 | 13.96323 | 120.15654 | 14943 ft | 315 kts | 21° |
| 2026-05-08 09:11 | 13.98331 | 120.16547 | 14619 ft | 314 kts | 21° |
| 2026-05-08 09:12 | 14.00335 | 120.17442 | 14296 ft | 313 kts | 21° |
| 2026-05-08 09:12 | 14.02319 | 120.18331 | 13974 ft | 312 kts | 21° |
| 2026-05-08 09:12 | 14.04088 | 120.19127 | 13689 ft | 311 kts | 21° |
| 2026-05-08 09:12 | 14.06246 | 120.20098 | 13342 ft | 309 kts | 21° |
| 2026-05-08 09:13 | 14.08076 | 120.20923 | 13048 ft | 309 kts | 21° |
| 2026-05-08 09:13 | 14.09788 | 120.21695 | 12773 ft | 308 kts | 21° |
| 2026-05-08 09:13 | 14.11968 | 120.22678 | 12427 ft | 307 kts | 21° |
| 2026-05-08 09:13 | 14.13946 | 120.23571 | 12113 ft | 306 kts | 21° |
| 2026-05-08 09:14 | 14.15881 | 120.24445 | 11807 ft | 305 kts | 21° |
| 2026-05-08 09:14 | 14.17840 | 120.25329 | 11506 ft | 303 kts | 21° |
| 2026-05-08 09:14 | 14.19656 | 120.26372 | 11191 ft | 306 kts | 40° |
| 2026-05-08 09:14 | 14.20839 | 120.28206 | 10911 ft | 307 kts | 68° |
| 2026-05-08 09:15 | 14.21499 | 120.30247 | 10915 ft | 296 kts | 70° |
| 2026-05-08 09:15 | 14.22118 | 120.32217 | 10789 ft | 289 kts | 70° |
| 2026-05-08 09:15 | 14.22757 | 120.34183 | 10563 ft | 286 kts | 69° |
| 2026-05-08 09:15 | 14.23407 | 120.36108 | 10063 ft | 287 kts | 69° |
| 2026-05-08 09:16 | 14.24078 | 120.38042 | 9648 ft | 287 kts | 68° |
| 2026-05-08 09:16 | 14.24733 | 120.39911 | 9278 ft | 286 kts | 68° |
| 2026-05-08 09:16 | 14.25351 | 120.41659 | 8936 ft | 284 kts | 68° |
| 2026-05-08 09:16 | 14.25911 | 120.43235 | 8625 ft | 282 kts | 68° |
| 2026-05-08 09:17 | 14.26516 | 120.44939 | 8286 ft | 279 kts | 68° |
| 2026-05-08 09:17 | 14.27179 | 120.46805 | 7912 ft | 278 kts | 68° |
| 2026-05-08 09:17 | 14.27844 | 120.48681 | 7535 ft | 276 kts | 68° |
| 2026-05-08 09:17 | 14.28484 | 120.50489 | 7316 ft | 269 kts | 68° |
| 2026-05-08 09:18 | 14.29044 | 120.52072 | 7218 ft | 263 kts | 68° |
| 2026-05-08 09:18 | 14.29597 | 120.53628 | 7112 ft | 258 kts | 68° |
| 2026-05-08 09:18 | 14.30308 | 120.55630 | 6952 ft | 249 kts | 68° |
| 2026-05-08 09:18 | 14.30807 | 120.57034 | 6835 ft | 244 kts | 67° |
| 2026-05-08 09:19 | 14.31430 | 120.58790 | 6691 ft | 236 kts | 67° |
| 2026-05-08 09:19 | 14.31970 | 120.60308 | 6565 ft | 230 kts | 67° |
| 2026-05-08 09:19 | 14.32523 | 120.61865 | 6433 ft | 224 kts | 67° |
| 2026-05-08 09:19 | 14.32844 | 120.62766 | 6360 ft | 220 kts | 67° |
| 2026-05-08 09:20 | 14.33419 | 120.64377 | 6220 ft | 213 kts | 67° |
| 2026-05-08 09:20 | 14.33702 | 120.65174 | 6154 ft | 210 kts | 68° |
| 2026-05-08 09:20 | 14.34083 | 120.66242 | 6060 ft | 206 kts | 67° |
| 2026-05-08 09:20 | 14.34444 | 120.67260 | 5972 ft | 202 kts | 68° |
| 2026-05-08 09:21 | 14.34792 | 120.68226 | 5891 ft | 197 kts | 68° |
| 2026-05-08 09:21 | 14.35204 | 120.69386 | 5768 ft | 190 kts | 68° |
| 2026-05-08 09:22 | 14.37549 | 120.76620 | 4346 ft | 184 kts | 82° |
| 2026-05-08 09:23 | 14.37829 | 120.77910 | 4068 ft | 186 kts | 76° |
| 2026-05-08 09:23 | 14.38196 | 120.78954 | 3890 ft | 185 kts | 69° |
| 2026-05-08 09:23 | 14.38607 | 120.79848 | 3748 ft | 183 kts | 66° |
| 2026-05-08 09:23 | 14.39096 | 120.80776 | 3584 ft | 181 kts | 64° |
| 2026-05-08 09:24 | 14.39795 | 120.82041 | 3332 ft | 179 kts | 64° |
| 2026-05-08 09:24 | 14.40423 | 120.83163 | 3092 ft | 178 kts | 63° |
| 2026-05-08 09:24 | 14.41041 | 120.84255 | 3003 ft | 173 kts | 63° |
| 2026-05-08 09:24 | 14.41639 | 120.85319 | 2997 ft | 176 kts | 63° |
| 2026-05-08 09:25 | 14.42260 | 120.86444 | 2994 ft | 180 kts | 64° |
| 2026-05-08 09:25 | 14.42874 | 120.87570 | 2810 ft | 179 kts | 64° |
| 2026-05-08 09:25 | 14.43489 | 120.88685 | 2580 ft | 177 kts | 64° |
| 2026-05-08 09:25 | 14.44088 | 120.89761 | 2343 ft | 170 kts | 64° |
| 2026-05-08 09:26 | 14.44602 | 120.90685 | 2132 ft | 164 kts | 64° |
| 2026-05-08 09:26 | 14.44968 | 120.91341 | 1987 ft | 159 kts | 64° |
| 2026-05-08 09:26 | 14.45568 | 120.92417 | 1753 ft | 150 kts | 64° |
| 2026-05-08 09:26 | 14.46144 | 120.93454 | 1547 ft | 142 kts | 64° |
| 2026-05-08 09:27 | 14.46520 | 120.94133 | 1403 ft | 140 kts | 64° |
| 2026-05-08 09:27 | 14.46822 | 120.94674 | 1298 ft | 140 kts | 63° |
| 2026-05-08 09:27 | 14.47218 | 120.95383 | 1150 ft | 140 kts | 64° |
| 2026-05-08 09:27 | 14.47585 | 120.96043 | 1009 ft | 141 kts | 64° |
| 2026-05-08 09:28 | 14.47920 | 120.96641 | 892 ft | 142 kts | 63° |
| 2026-05-08 09:28 | 14.48339 | 120.97367 | 752 ft | 142 kts | 63° |
| 2026-05-08 09:28 | 14.48819 | 120.98237 | 551 ft | 141 kts | 65° |
| 2026-05-08 09:28 | 14.49292 | 120.99110 | 337 ft | 138 kts | 63° |
| 2026-05-08 09:29 | 14.49766 | 120.99966 | 143 ft | 139 kts | 64° |
| 2026-05-08 09:29 | 14.50229 | 121.00805 | 94 ft | 123 kts | 63° |
| 2026-05-08 09:29 | 14.50489 | 121.01301 | 93 ft | 86 kts | 60° |
| 2026-05-08 09:29 | 14.50727 | 121.01734 | 93 ft | 79 kts | 61° |
| 2026-05-08 09:30 | 14.50916 | 121.02063 | 93 ft | 49 kts | 59° |
| 2026-05-08 09:30 | 14.51043 | 121.02216 | 93 ft | 21 kts | 43° |
| 2026-05-08 09:30 | 14.51083 | 121.02254 | 93 ft | 3 kts | 43° |
| 2026-05-08 09:30 | 14.51119 | 121.02287 | 93 ft | 9 kts | 41° |
| 2026-05-08 09:31 | 14.51181 | 121.02293 | 92 ft | 10 kts | 313° |
| 2026-05-08 09:31 | 14.51168 | 121.02214 | 93 ft | 12 kts | 241° |
| 2026-05-08 09:31 | 14.51122 | 121.02132 | 93 ft | 13 kts | 239° |
| 2026-05-08 09:31 | 14.51074 | 121.02044 | 92 ft | 14 kts | 241° |
| 2026-05-08 09:32 | 14.51087 | 121.01968 | 93 ft | 10 kts | 309° |
| 2026-05-08 09:32 | 14.51145 | 121.01913 | 93 ft | 11 kts | 317° |
| 2026-05-08 09:32 | 14.51207 | 121.01849 | 93 ft | 12 kts | 314° |
| 2026-05-08 09:32 | 14.51271 | 121.01781 | 93 ft | 13 kts | 314° |
| 2026-05-08 09:33 | 14.51341 | 121.01708 | 93 ft | 14 kts | 315° |
| 2026-05-08 09:33 | 14.51418 | 121.01636 | 93 ft | 15 kts | 316° |
| 2026-05-08 09:33 | 14.51476 | 121.01571 | 93 ft | 6 kts | 317° |
| 2026-05-08 09:33 | 14.51523 | 121.01574 | 93 ft | 8 kts | 36° |
| 2026-05-08 09:34 | 14.51555 | 121.01603 | 92 ft | 0 kts | 44° |
| 2026-05-08 09:34 | 14.51556 | 121.01603 | 92 ft | 0 kts | 43° |
| 2026-05-08 09:34 | 14.51558 | 121.01606 | 93 ft | 1 kts | 44° |
| 2026-05-08 09:34 | 14.51564 | 121.01611 | 93 ft | 0 kts | 44° |